createdAt,value
2023-08-18T00:00:07.355Z,100.00
2023-08-18T00:02:36.570Z,100.00
2023-08-18T00:05:03.563Z,100.00
2023-08-18T00:07:30.911Z,100.00
2023-08-18T00:09:58.080Z,100.00
2023-08-18T00:12:25.045Z,100.00
2023-08-18T00:14:53.276Z,100.00
2023-08-18T00:17:20.134Z,100.00
2023-08-18T00:20:06.950Z,100.00
2023-08-18T00:23:07.904Z,100.00
2023-08-18T00:25:48.330Z,100.00
2023-08-18T00:28:15.213Z,100.00
2023-08-18T00:30:42.097Z,100.00
2023-08-18T00:33:28.922Z,100.00
2023-08-18T00:36:29.909Z,100.00
2023-08-18T00:39:10.489Z,100.00
2023-08-18T00:41:37.336Z,100.00
2023-08-18T00:44:04.260Z,100.00
2023-08-18T00:46:32.128Z,100.00
2023-08-18T00:48:59.769Z,100.00
2023-08-18T00:51:26.827Z,100.00
2023-08-18T00:53:54.433Z,100.00
2023-08-18T00:56:21.300Z,100.00
2023-08-18T00:58:48.169Z,100.00
2023-08-18T01:01:15.051Z,100.00
2023-08-18T01:03:42.468Z,100.00
2023-08-18T01:06:42.949Z,100.00
2023-08-18T01:09:43.929Z,100.00
2023-08-18T01:12:51.930Z,100.00
2023-08-18T01:15:36.235Z,100.00
2023-08-18T01:18:04.610Z,98.91
2023-08-18T01:20:32.485Z,100.00
2023-08-18T01:23:00.020Z,100.00
2023-08-18T01:25:27.247Z,100.00
2023-08-18T01:27:55.061Z,100.00
2023-08-18T01:30:22.981Z,100.00
2023-08-18T01:32:55.974Z,100.00
2023-08-18T01:35:27.152Z,100.00
2023-08-18T01:37:54.915Z,100.00
2023-08-18T01:41:13.009Z,100.00
2023-08-18T01:43:17.175Z,100.00
2023-08-18T01:45:44.099Z,100.00
2023-08-18T01:48:11.171Z,100.00
2023-08-18T01:50:38.032Z,100.00
2023-08-18T01:53:24.984Z,100.00
2023-08-18T01:56:25.981Z,100.00
2023-08-18T01:59:06.501Z,100.00
2023-08-18T02:01:33.403Z,100.00
2023-08-18T02:04:00.416Z,100.00
2023-08-18T02:06:27.337Z,100.00
2023-08-18T02:08:54.101Z,100.00
2023-08-18T02:11:20.919Z,100.00
2023-08-18T02:13:47.831Z,100.00
2023-08-18T02:16:15.306Z,100.00
2023-08-18T02:18:42.167Z,100.00
2023-08-18T02:21:09.242Z,100.00
2023-08-18T02:23:36.191Z,100.00
2023-08-18T02:26:04.342Z,100.00
2023-08-18T02:28:33.194Z,100.00
2023-08-18T02:31:00.852Z,100.00
2023-08-18T02:33:30.003Z,100.00
2023-08-18T02:35:56.830Z,100.00
2023-08-18T02:38:23.681Z,100.00
2023-08-18T02:40:50.778Z,100.00
2023-08-18T02:43:17.580Z,100.00
2023-08-18T02:46:11.031Z,100.00
2023-08-18T02:49:12.038Z,100.00
2023-08-18T02:51:52.464Z,100.00
2023-08-18T02:54:19.297Z,100.00
2023-08-18T02:56:46.104Z,100.00
2023-08-18T02:59:13.164Z,100.00
2023-08-18T03:01:40.095Z,100.00
2023-08-18T03:04:07.083Z,100.00
2023-08-18T03:06:34.220Z,100.00
2023-08-18T03:09:01.026Z,100.00
2023-08-18T03:11:28.720Z,100.00
2023-08-18T03:13:56.547Z,100.00
2023-08-18T03:16:23.551Z,100.00
2023-08-18T03:18:50.366Z,100.00
2023-08-18T03:21:17.299Z,100.00
2023-08-18T03:23:44.288Z,100.00
2023-08-18T03:26:11.489Z,100.00
2023-08-18T03:28:38.695Z,100.00
2023-08-18T03:31:26.063Z,100.00
2023-08-18T03:34:27.045Z,100.00
2023-08-18T03:37:07.468Z,100.00
2023-08-18T03:39:34.583Z,100.00
2023-08-18T03:42:01.502Z,100.00
2023-08-18T03:44:28.501Z,100.00
2023-08-18T03:46:57.650Z,100.00
2023-08-18T03:49:25.430Z,100.00
2023-08-18T03:51:52.392Z,100.00
2023-08-18T03:54:19.802Z,100.00
2023-08-18T03:56:46.968Z,100.00
2023-08-18T03:59:16.338Z,100.00
2023-08-18T04:01:43.250Z,100.00
2023-08-18T04:04:10.780Z,100.00
2023-08-18T04:06:38.290Z,100.00
2023-08-18T04:09:11.024Z,100.00
2023-08-18T04:11:37.817Z,100.00
2023-08-18T04:14:26.097Z,100.00
2023-08-18T04:17:27.156Z,100.00
2023-08-18T04:20:10.133Z,100.00
2023-08-18T04:22:37.543Z,100.00
2023-08-18T04:25:05.422Z,100.00
2023-08-18T04:27:32.296Z,100.00
2023-08-18T04:30:00.225Z,100.00
2023-08-18T04:32:29.462Z,100.00
2023-08-18T04:34:56.540Z,100.00
2023-08-18T04:37:23.520Z,100.00
2023-08-18T04:39:52.619Z,100.00
2023-08-18T04:42:20.072Z,100.00
2023-08-18T04:44:47.043Z,100.00
2023-08-18T04:47:13.914Z,100.00
2023-08-18T04:50:02.115Z,100.00
2023-08-18T04:52:54.408Z,100.00
2023-08-18T04:55:21.309Z,100.00
2023-08-18T04:57:48.585Z,100.00
2023-08-18T05:00:16.137Z,100.00
2023-08-18T05:02:43.545Z,100.00
2023-08-18T05:05:31.104Z,100.00
2023-08-18T05:08:11.480Z,100.00
2023-08-18T05:10:38.390Z,100.00
2023-08-18T05:13:05.306Z,100.00
2023-08-18T05:15:32.111Z,100.00
2023-08-18T05:17:59.027Z,100.00
2023-08-18T05:20:25.911Z,100.00
2023-08-18T05:22:52.970Z,100.00
2023-08-18T05:25:19.869Z,100.00
2023-08-18T05:27:46.760Z,100.00
2023-08-18T05:30:13.707Z,100.00
2023-08-18T05:32:40.696Z,100.00
2023-08-18T05:35:07.757Z,100.00
2023-08-18T05:37:35.238Z,100.00
2023-08-18T05:40:02.186Z,100.00
2023-08-18T05:42:30.749Z,99.89
2023-08-18T05:44:57.890Z,99.29
2023-08-18T05:47:24.715Z,99.72
2023-08-18T05:49:51.531Z,99.68
2023-08-18T05:52:18.293Z,97.31
2023-08-18T05:54:45.125Z,94.62
2023-08-18T05:57:12.164Z,95.03
2023-08-18T05:59:40.896Z,90.86
2023-08-18T06:02:07.767Z,89.87
2023-08-18T06:04:34.675Z,87.15
2023-08-18T06:07:01.528Z,83.62
2023-08-18T06:09:28.379Z,78.43
2023-08-18T06:11:55.222Z,74.41
2023-08-18T06:14:22.188Z,69.73
2023-08-18T06:16:49.009Z,70.55
2023-08-18T06:19:15.779Z,67.06
2023-08-18T06:21:42.634Z,62.19
2023-08-18T06:24:09.844Z,65.31
2023-08-18T06:26:36.746Z,72.28
2023-08-18T06:29:03.692Z,76.33
2023-08-18T06:31:30.602Z,81.08
2023-08-18T06:33:57.534Z,81.64
2023-08-18T06:36:26.702Z,76.10
2023-08-18T06:38:54.214Z,67.14
2023-08-18T06:41:21.115Z,73.38
2023-08-18T06:44:09.729Z,76.90
2023-08-18T06:47:10.653Z,75.12
2023-08-18T06:50:13.191Z,76.46
2023-08-18T06:53:12.150Z,71.76
2023-08-18T06:55:53.338Z,65.54
2023-08-18T06:58:29.355Z,68.62
2023-08-18T07:01:00.826Z,69.14
2023-08-18T07:03:48.691Z,61.67
2023-08-18T07:06:49.377Z,61.81
2023-08-18T07:09:50.193Z,61.80
2023-08-18T07:12:51.249Z,65.29
2023-08-18T07:15:32.135Z,72.16
2023-08-18T07:17:58.936Z,72.82
2023-08-18T07:20:25.905Z,71.63
2023-08-18T07:22:53.054Z,64.30
2023-08-18T07:25:19.875Z,73.09
2023-08-18T07:27:46.753Z,72.73
2023-08-18T07:30:34.312Z,77.90
2023-08-18T07:33:35.198Z,78.46
2023-08-18T07:36:15.654Z,77.28
2023-08-18T07:38:42.980Z,74.46
2023-08-18T07:41:09.791Z,72.61
2023-08-18T07:43:36.648Z,71.31
2023-08-18T07:46:03.520Z,67.40
2023-08-18T07:48:30.401Z,64.90
2023-08-18T07:51:17.253Z,72.16
2023-08-18T07:54:18.212Z,73.41
2023-08-18T07:57:19.235Z,71.20
2023-08-18T08:00:28.234Z,68.67
2023-08-18T08:03:29.358Z,68.47
2023-08-18T08:06:30.240Z,62.62
2023-08-18T08:09:31.264Z,60.21
2023-08-18T08:12:32.249Z,57.89
2023-08-18T08:15:14.355Z,59.98
2023-08-18T08:17:41.559Z,62.75
2023-08-18T08:20:18.719Z,57.56
2023-08-18T08:22:47.320Z,52.95
2023-08-18T08:25:14.386Z,53.74
2023-08-18T08:28:04.249Z,56.28
2023-08-18T08:31:06.522Z,59.71
2023-08-18T08:33:46.684Z,59.62
2023-08-18T08:36:13.778Z,56.60
2023-08-18T08:38:42.774Z,56.63
2023-08-18T08:41:10.252Z,59.29
2023-08-18T08:43:38.460Z,62.02
2023-08-18T08:46:06.602Z,58.46
2023-08-18T08:48:37.979Z,58.51
2023-08-18T08:51:19.269Z,54.57
2023-08-18T08:54:14.372Z,52.69
2023-08-18T08:57:16.256Z,54.74
2023-08-18T09:00:17.291Z,53.26
2023-08-18T09:03:18.366Z,57.40
2023-08-18T09:06:19.301Z,62.00
2023-08-18T09:09:22.269Z,55.16
2023-08-18T09:12:07.350Z,54.83
2023-08-18T09:14:35.491Z,54.46
2023-08-18T09:17:05.829Z,53.36
2023-08-18T09:19:33.181Z,56.09
2023-08-18T09:22:01.025Z,48.35
2023-08-18T09:24:30.728Z,47.79
2023-08-18T09:27:07.593Z,53.48
2023-08-18T09:29:36.333Z,49.55
2023-08-18T09:32:37.354Z,50.26
2023-08-18T09:35:21.276Z,57.55
2023-08-18T09:37:57.384Z,49.93
2023-08-18T09:40:25.859Z,53.05
2023-08-18T09:42:52.739Z,50.37
2023-08-18T09:45:24.230Z,47.55
2023-08-18T09:47:55.232Z,45.07
2023-08-18T09:50:26.105Z,47.36
2023-08-18T09:52:54.070Z,47.49
2023-08-18T09:55:50.273Z,52.75
2023-08-18T09:58:51.355Z,50.36
2023-08-18T10:01:34.310Z,48.27
2023-08-18T10:04:22.421Z,49.37
2023-08-18T10:07:25.831Z,45.92
2023-08-18T10:10:27.324Z,46.60
2023-08-18T10:13:28.317Z,45.12
2023-08-18T10:16:29.454Z,47.13
2023-08-18T10:19:09.829Z,44.54
2023-08-18T10:21:36.807Z,46.26
2023-08-18T10:24:04.775Z,47.77
2023-08-18T10:26:34.111Z,45.46
2023-08-18T10:29:26.339Z,50.69
2023-08-18T10:32:08.101Z,50.72
2023-08-18T10:34:35.050Z,52.69
2023-08-18T10:37:04.944Z,48.09
2023-08-18T10:39:37.509Z,47.53
2023-08-18T10:42:09.008Z,51.44
2023-08-18T10:44:36.121Z,47.31
2023-08-18T10:47:06.562Z,45.69
2023-08-18T10:49:53.358Z,46.08
2023-08-18T10:52:54.352Z,42.78
2023-08-18T10:55:56.353Z,46.57
2023-08-18T10:58:37.043Z,49.01
2023-08-18T11:01:06.876Z,46.62
2023-08-18T11:03:33.829Z,48.70
2023-08-18T11:06:21.359Z,46.72
2023-08-18T11:09:23.350Z,45.37
2023-08-18T11:12:24.603Z,49.12
2023-08-18T11:15:05.068Z,49.68
2023-08-18T11:17:31.848Z,48.06
2023-08-18T11:19:59.514Z,46.08
2023-08-18T11:22:27.103Z,46.22
2023-08-18T11:24:54.051Z,52.41
2023-08-18T11:27:20.957Z,46.65
2023-08-18T11:29:47.942Z,46.73
2023-08-18T11:32:14.812Z,50.98
2023-08-18T11:34:42.381Z,48.13
2023-08-18T11:37:11.784Z,51.47
2023-08-18T11:39:38.639Z,45.97
2023-08-18T11:42:05.747Z,45.13
2023-08-18T11:44:35.565Z,53.19
2023-08-18T11:47:04.173Z,53.46
2023-08-18T11:49:31.133Z,52.94
2023-08-18T11:52:01.672Z,52.33
2023-08-18T11:54:49.412Z,50.43
2023-08-18T11:57:52.395Z,51.15
2023-08-18T12:00:36.879Z,46.27
2023-08-18T12:03:53.471Z,46.84
2023-08-18T12:06:54.416Z,51.75
2023-08-18T12:09:48.754Z,50.95
2023-08-18T12:12:42.406Z,50.00
2023-08-18T12:15:24.903Z,49.90
2023-08-18T12:17:52.132Z,49.12
2023-08-18T12:20:22.338Z,52.75
2023-08-18T12:22:49.635Z,53.27
2023-08-18T12:25:17.353Z,56.72
2023-08-18T12:27:47.926Z,51.88
2023-08-18T12:30:15.590Z,49.52
2023-08-18T12:32:46.250Z,50.27
2023-08-18T12:35:13.226Z,55.29
2023-08-18T12:37:40.483Z,50.44
2023-08-18T12:40:07.810Z,50.61
2023-08-18T12:42:34.696Z,51.32
2023-08-18T12:45:01.530Z,48.35
2023-08-18T12:47:28.846Z,51.96
2023-08-18T12:49:56.014Z,48.86
2023-08-18T12:52:22.870Z,49.82
2023-08-18T12:54:49.953Z,55.91
2023-08-18T12:57:16.789Z,50.34
2023-08-18T12:59:43.780Z,49.11
2023-08-18T13:02:10.872Z,49.98
2023-08-18T13:04:37.793Z,48.77
2023-08-18T13:07:24.434Z,45.04
2023-08-18T13:10:25.514Z,46.38
2023-08-18T13:13:21.479Z,44.73
2023-08-18T13:16:15.492Z,44.99
2023-08-18T13:18:55.923Z,45.01
2023-08-18T13:21:22.733Z,44.03
2023-08-18T13:23:51.484Z,46.04
2023-08-18T13:26:18.692Z,45.19
2023-08-18T13:28:45.478Z,48.07
2023-08-18T13:31:12.481Z,49.14
2023-08-18T13:33:39.682Z,50.75
2023-08-18T13:36:06.622Z,47.57
2023-08-18T13:38:33.496Z,46.49
2023-08-18T13:41:00.357Z,46.81
2023-08-18T13:43:27.355Z,47.10
2023-08-18T13:45:57.964Z,49.87
2023-08-18T13:48:25.379Z,49.43
2023-08-18T13:50:57.642Z,48.89
2023-08-18T13:53:26.816Z,49.29
2023-08-18T13:55:54.208Z,49.61
2023-08-18T13:58:25.542Z,49.03
2023-08-18T14:00:53.433Z,49.87
2023-08-18T14:03:45.046Z,50.19
2023-08-18T14:06:50.734Z,50.45
2023-08-18T14:09:23.915Z,52.60
2023-08-18T14:11:51.788Z,52.15
2023-08-18T14:14:19.282Z,51.43
2023-08-18T14:16:46.324Z,51.79
2023-08-18T14:22:50.517Z,52.26
2023-08-18T14:25:53.068Z,51.05
2023-08-18T14:28:33.020Z,51.47
2023-08-18T14:30:59.844Z,52.15
2023-08-18T14:33:43.473Z,52.01
2023-08-18T14:36:12.152Z,51.65
2023-08-18T14:38:39.230Z,51.16
2023-08-18T14:41:07.071Z,51.00
2023-08-18T14:43:34.136Z,49.96
2023-08-18T14:46:01.155Z,51.04
2023-08-18T14:48:30.476Z,50.58
2023-08-18T14:50:58.045Z,50.54
2023-08-18T14:53:25.073Z,53.05
2023-08-18T14:55:55.552Z,51.80
2023-08-18T14:58:29.012Z,52.54
2023-08-18T15:00:56.575Z,52.18
2023-08-18T15:03:23.898Z,52.73
2023-08-18T15:06:11.714Z,53.74
2023-08-18T15:09:04.066Z,54.14
2023-08-18T15:11:59.494Z,54.49
2023-08-18T15:15:00.566Z,52.24
2023-08-18T15:18:01.605Z,53.78
2023-08-18T15:21:02.602Z,50.77
2023-08-18T15:24:04.558Z,51.71
2023-08-18T15:27:03.345Z,53.68
2023-08-18T15:29:30.380Z,51.68
2023-08-18T15:31:58.515Z,52.61
2023-08-18T15:34:26.242Z,52.81
2023-08-18T15:36:55.230Z,52.38
2023-08-18T15:39:22.117Z,52.43
2023-08-18T15:41:49.149Z,51.53
2023-08-18T15:44:16.035Z,51.61
2023-08-18T15:46:44.841Z,51.61
2023-08-18T15:49:11.769Z,52.83
2023-08-18T15:51:38.653Z,51.83
2023-08-18T15:54:05.708Z,52.03
2023-08-18T15:56:32.586Z,51.72
2023-08-18T15:58:59.601Z,51.30
2023-08-18T16:01:46.572Z,51.23
2023-08-18T16:04:48.604Z,51.47
2023-08-18T16:07:29.426Z,51.53
2023-08-18T16:09:56.597Z,51.92
2023-08-18T16:12:43.577Z,53.05
2023-08-18T16:15:28.084Z,53.93
2023-08-18T16:17:57.259Z,53.74
2023-08-18T16:20:44.588Z,53.74
2023-08-18T16:23:25.321Z,53.87
2023-08-18T16:25:55.576Z,55.23
2023-08-18T16:28:22.583Z,55.42
2023-08-18T16:31:09.654Z,55.61
2023-08-18T16:34:10.581Z,56.33
2023-08-18T16:36:51.017Z,53.47
2023-08-18T16:39:18.282Z,54.47
2023-08-18T16:41:45.358Z,53.37
2023-08-18T16:44:12.262Z,54.82
2023-08-18T16:46:40.884Z,55.10
2023-08-18T16:49:08.298Z,54.81
2023-08-18T16:51:36.167Z,55.40
2023-08-18T16:54:03.198Z,56.40
2023-08-18T16:56:30.042Z,56.99
2023-08-18T16:58:58.212Z,58.69
2023-08-18T17:01:25.140Z,59.01
2023-08-18T17:04:16.734Z,58.62
2023-08-18T17:07:18.654Z,58.95
2023-08-18T17:09:59.055Z,59.41
2023-08-18T17:12:25.905Z,57.99
2023-08-18T17:14:52.875Z,59.41
2023-08-18T17:17:39.674Z,59.80
2023-08-18T17:20:40.642Z,59.57
2023-08-18T17:23:41.740Z,60.07
2023-08-18T17:26:24.381Z,59.69
2023-08-18T17:29:11.634Z,60.72
2023-08-18T17:32:12.663Z,60.49
2023-08-18T17:34:44.130Z,60.85
2023-08-18T17:37:11.015Z,61.13
2023-08-18T17:39:38.059Z,61.58
2023-08-18T17:42:25.660Z,62.16
2023-08-18T17:45:28.115Z,64.00
2023-08-18T17:48:10.236Z,63.97
2023-08-18T17:50:37.387Z,64.67
2023-08-18T17:53:04.453Z,65.64
2023-08-18T17:55:38.643Z,65.91
2023-08-18T17:58:07.634Z,67.06
2023-08-18T18:00:38.938Z,66.56
2023-08-18T18:03:06.101Z,66.97
2023-08-18T18:05:34.214Z,68.26
2023-08-18T18:08:03.268Z,69.53
2023-08-18T18:10:32.026Z,70.52
2023-08-18T18:13:03.569Z,70.06
2023-08-18T18:15:50.875Z,69.97
2023-08-18T18:18:53.876Z,71.00
2023-08-18T18:21:31.294Z,71.02
2023-08-18T18:23:58.133Z,71.16
2023-08-18T18:29:11.494Z,70.51
2023-08-18T18:31:42.335Z,71.03
2023-08-18T18:34:18.249Z,72.09
2023-08-18T18:36:45.124Z,72.21
2023-08-18T18:39:14.121Z,72.89
2023-08-18T18:42:01.905Z,73.22
2023-08-18T18:45:07.093Z,74.00
2023-08-18T18:47:47.405Z,73.70
2023-08-18T18:50:14.295Z,73.78
2023-08-18T18:55:22.082Z,73.31
2023-08-18T18:57:48.996Z,73.78
2023-08-18T19:00:16.099Z,73.73
2023-08-18T19:02:43.249Z,74.47
2023-08-18T19:05:12.007Z,74.52
2023-08-18T19:07:41.109Z,75.79
2023-08-18T19:10:08.200Z,75.96
2023-08-18T19:12:55.748Z,76.77
2023-08-18T19:15:56.828Z,77.27
2023-08-18T19:18:38.216Z,78.12
2023-08-18T19:21:05.347Z,77.93
2023-08-18T19:23:52.734Z,77.25
2023-08-18T19:26:34.928Z,77.97
2023-08-18T19:29:02.181Z,78.63
2023-08-18T19:31:50.138Z,80.17
2023-08-18T19:34:50.767Z,79.90
2023-08-18T19:37:31.443Z,79.34
2023-08-18T19:39:59.422Z,79.95
2023-08-18T19:42:48.132Z,79.76
2023-08-18T19:45:49.875Z,79.48
2023-08-18T19:48:51.108Z,79.59
2023-08-18T19:51:49.450Z,80.87
2023-08-18T19:54:16.372Z,81.06
2023-08-18T19:56:43.716Z,81.20
2023-08-18T19:59:10.666Z,81.48
2023-08-18T20:01:37.535Z,81.89
2023-08-18T20:04:04.613Z,82.68
2023-08-18T20:06:31.554Z,82.74
2023-08-18T20:08:59.392Z,83.56
2023-08-18T20:11:46.773Z,83.42
2023-08-18T20:14:47.773Z,84.28
2023-08-18T20:17:15.923Z,84.32
2023-08-18T20:24:55.804Z,85.63
2023-08-18T20:27:56.780Z,85.24
2023-08-18T20:30:42.842Z,86.01
2023-08-18T20:33:11.334Z,86.56
2023-08-18T20:35:38.554Z,87.01
2023-08-18T20:38:05.637Z,87.99
2023-08-18T20:40:32.775Z,89.40
2023-08-18T20:43:20.022Z,88.54
2023-08-18T20:46:20.853Z,88.49
2023-08-18T20:49:01.330Z,88.54
2023-08-18T20:51:28.723Z,89.77
2023-08-18T20:53:55.590Z,88.93
2023-08-18T20:56:22.536Z,88.54
2023-08-18T20:58:49.716Z,88.79
2023-08-18T21:01:16.536Z,89.88
2023-08-18T21:03:45.387Z,89.50
2023-08-18T21:06:12.417Z,90.08
2023-08-18T21:08:39.555Z,90.00
2023-08-18T21:11:06.480Z,90.08
2023-08-18T21:13:33.391Z,91.31
2023-08-18T21:16:00.786Z,92.17
2023-08-18T21:18:27.792Z,91.86
2023-08-18T21:20:55.420Z,93.46
2023-08-18T21:23:45.857Z,94.01
2023-08-18T21:26:32.392Z,94.46
2023-08-18T21:28:59.289Z,95.02
2023-08-18T21:31:47.056Z,95.85
2023-08-18T21:34:47.812Z,96.04
2023-08-18T21:37:28.340Z,95.65
2023-08-18T21:39:55.295Z,96.91
2023-08-18T21:42:42.854Z,97.20
2023-08-18T21:45:43.911Z,96.79
2023-08-18T21:48:45.183Z,97.49
2023-08-18T21:51:44.995Z,99.77
2023-08-18T21:54:11.890Z,98.67
2023-08-18T21:56:38.696Z,98.40
2023-08-18T21:59:05.558Z,98.66
2023-08-18T22:01:32.530Z,98.56
2023-08-18T22:03:59.920Z,99.50
2023-08-18T22:06:27.243Z,98.63
2023-08-18T22:08:54.006Z,98.90
2023-08-18T22:11:40.867Z,100.00
2023-08-18T22:14:41.926Z,100.00
2023-08-18T22:17:42.905Z,100.00
2023-08-18T22:20:23.796Z,100.00
2023-08-18T22:22:50.637Z,100.00
2023-08-18T22:25:17.637Z,100.00
2023-08-18T22:27:44.763Z,100.00
2023-08-18T22:30:11.678Z,100.00
2023-08-18T22:32:38.624Z,100.00
2023-08-18T22:35:08.406Z,100.00
2023-08-18T22:37:35.643Z,100.00
2023-08-18T22:40:02.569Z,100.00
2023-08-18T22:42:30.007Z,100.00
2023-08-18T22:44:57.163Z,100.00
2023-08-18T22:47:45.897Z,100.00
2023-08-18T22:50:46.870Z,100.00
2023-08-18T22:53:47.909Z,100.00
2023-08-18T22:56:48.853Z,100.00
2023-08-18T22:59:29.605Z,100.00
2023-08-18T23:01:57.861Z,100.00
2023-08-18T23:04:25.428Z,100.00
2023-08-18T23:07:12.920Z,100.00
2023-08-18T23:10:13.876Z,100.00
2023-08-18T23:12:42.071Z,100.00
2023-08-18T23:15:09.881Z,100.00
2023-08-18T23:17:37.109Z,100.00
2023-08-18T23:20:05.191Z,100.00
2023-08-18T23:22:32.297Z,100.00
2023-08-18T23:24:59.114Z,100.00
2023-08-18T23:27:26.179Z,100.00
2023-08-18T23:29:53.385Z,100.00
2023-08-18T23:32:20.465Z,100.00
2023-08-18T23:34:47.873Z,100.00
2023-08-18T23:37:14.752Z,100.00
2023-08-18T23:39:41.548Z,100.00
2023-08-18T23:42:08.445Z,100.00
2023-08-18T23:44:36.183Z,100.00
2023-08-18T23:47:03.951Z,100.00
2023-08-18T23:49:31.190Z,100.00
2023-08-18T23:51:58.063Z,100.00
2023-08-18T23:54:24.913Z,100.00
2023-08-18T23:56:51.836Z,100.00
2023-08-18T23:59:18.683Z,100.00
